sensor_id;sensor_type;location;lat;lon;timestamp;temperature;humidity
21616;DHT22;10970;48.714;9.584;2023-06-22T00:00:51;20.50;99.90
21616;DHT22;10970;48.714;9.584;2023-06-22T00:03:21;20.40;99.90
21616;DHT22;10970;48.714;9.584;2023-06-22T00:05:47;20.50;99.90
21616;DHT22;10970;48.714;9.584;2023-06-22T00:08:13;20.50;99.90
21616;DHT22;10970;48.714;9.584;2023-06-22T00:10:39;20.50;99.90
21616;DHT22;10970;48.714;9.584;2023-06-22T00:13:06;20.40;99.90
21616;DHT22;10970;48.714;9.584;2023-06-22T00:15:32;20.40;99.90
21616;DHT22;10970;48.714;9.584;2023-06-22T00:17:57;20.30;99.90
21616;DHT22;10970;48.714;9.584;2023-06-22T00:20:24;20.30;99.90
21616;DHT22;10970;48.714;9.584;2023-06-22T00:22:57;20.30;99.90
21616;DHT22;10970;48.714;9.584;2023-06-22T00:25:23;20.30;99.90
21616;DHT22;10970;48.714;9.584;2023-06-22T00:27:49;20.30;99.90
21616;DHT22;10970;48.714;9.584;2023-06-22T00:30:16;20.30;99.90
21616;DHT22;10970;48.714;9.584;2023-06-22T00:32:42;20.30;99.90
21616;DHT22;10970;48.714;9.584;2023-06-22T00:35:08;20.20;99.90
21616;DHT22;10970;48.714;9.584;2023-06-22T00:37:35;20.20;99.90
21616;DHT22;10970;48.714;9.584;2023-06-22T00:40:02;20.20;99.90
21616;DHT22;10970;48.714;9.584;2023-06-22T00:42:28;20.20;99.90
21616;DHT22;10970;48.714;9.584;2023-06-22T00:44:53;20.20;99.90
21616;DHT22;10970;48.714;9.584;2023-06-22T00:47:19;20.10;99.90
21616;DHT22;10970;48.714;9.584;2023-06-22T00:49:47;20.10;99.90
21616;DHT22;10970;48.714;9.584;2023-06-22T00:52:14;20.00;99.90
21616;DHT22;10970;48.714;9.584;2023-06-22T00:54:49;20.00;99.90
21616;DHT22;10970;48.714;9.584;2023-06-22T00:57:17;20.00;99.90
21616;DHT22;10970;48.714;9.584;2023-06-22T00:59:47;20.00;99.90
21616;DHT22;10970;48.714;9.584;2023-06-22T01:02:13;19.90;99.90
21616;DHT22;10970;48.714;9.584;2023-06-22T01:04:39;19.80;99.90
21616;DHT22;10970;48.714;9.584;2023-06-22T01:07:31;19.80;99.90
21616;DHT22;10970;48.714;9.584;2023-06-22T01:12:30;19.70;99.90
21616;DHT22;10970;48.714;9.584;2023-06-22T01:15:13;19.70;99.90
21616;DHT22;10970;48.714;9.584;2023-06-22T01:17:41;19.70;99.90
21616;DHT22;10970;48.714;9.584;2023-06-22T01:20:09;19.70;99.90
21616;DHT22;10970;48.714;9.584;2023-06-22T01:22:51;19.70;99.90
21616;DHT22;10970;48.714;9.584;2023-06-22T01:25:31;19.70;99.90
21616;DHT22;10970;48.714;9.584;2023-06-22T01:30:41;19.60;99.90
21616;DHT22;10970;48.714;9.584;2023-06-22T01:33:10;19.60;99.90
21616;DHT22;10970;48.714;9.584;2023-06-22T01:35:37;19.50;99.90
21616;DHT22;10970;48.714;9.584;2023-06-22T01:38:03;19.40;99.90
21616;DHT22;10970;48.714;9.584;2023-06-22T01:40:30;19.50;99.90
21616;DHT22;10970;48.714;9.584;2023-06-22T01:42:57;19.50;99.90
21616;DHT22;10970;48.714;9.584;2023-06-22T01:45:24;19.40;99.90
21616;DHT22;10970;48.714;9.584;2023-06-22T01:47:50;19.40;99.90
21616;DHT22;10970;48.714;9.584;2023-06-22T01:50:16;19.40;99.90
21616;DHT22;10970;48.714;9.584;2023-06-22T01:52:41;19.20;99.90
21616;DHT22;10970;48.714;9.584;2023-06-22T01:55:07;19.20;99.90
21616;DHT22;10970;48.714;9.584;2023-06-22T01:57:33;19.20;99.90
21616;DHT22;10970;48.714;9.584;2023-06-22T02:00:02;19.10;99.90
21616;DHT22;10970;48.714;9.584;2023-06-22T02:05:09;19.10;99.90
21616;DHT22;10970;48.714;9.584;2023-06-22T02:07:49;19.00;99.90
21616;DHT22;10970;48.714;9.584;2023-06-22T02:10:20;19.00;99.90
21616;DHT22;10970;48.714;9.584;2023-06-22T02:12:47;19.00;99.90
21616;DHT22;10970;48.714;9.584;2023-06-22T02:15:13;19.00;99.90
21616;DHT22;10970;48.714;9.584;2023-06-22T02:17:40;19.00;99.90
21616;DHT22;10970;48.714;9.584;2023-06-22T02:20:19;18.90;99.90
21616;DHT22;10970;48.714;9.584;2023-06-22T02:22:45;18.90;99.90
21616;DHT22;10970;48.714;9.584;2023-06-22T02:25:11;18.90;99.90
21616;DHT22;10970;48.714;9.584;2023-06-22T02:27:37;18.90;99.90
21616;DHT22;10970;48.714;9.584;2023-06-22T02:30:09;18.90;99.90
21616;DHT22;10970;48.714;9.584;2023-06-22T02:32:35;18.80;99.90
21616;DHT22;10970;48.714;9.584;2023-06-22T02:35:01;18.80;99.90
21616;DHT22;10970;48.714;9.584;2023-06-22T02:37:31;18.80;99.90
21616;DHT22;10970;48.714;9.584;2023-06-22T02:39:56;18.80;99.90
21616;DHT22;10970;48.714;9.584;2023-06-22T02:42:22;18.80;99.90
21616;DHT22;10970;48.714;9.584;2023-06-22T02:44:48;18.70;99.90
21616;DHT22;10970;48.714;9.584;2023-06-22T02:47:13;18.70;99.90
21616;DHT22;10970;48.714;9.584;2023-06-22T02:49:39;18.70;99.90
21616;DHT22;10970;48.714;9.584;2023-06-22T02:52:05;18.70;99.90
21616;DHT22;10970;48.714;9.584;2023-06-22T02:54:31;18.60;99.90
21616;DHT22;10970;48.714;9.584;2023-06-22T02:56:56;18.60;99.90
21616;DHT22;10970;48.714;9.584;2023-06-22T02:59:22;18.60;99.90
21616;DHT22;10970;48.714;9.584;2023-06-22T03:01:51;18.50;99.90
21616;DHT22;10970;48.714;9.584;2023-06-22T03:04:18;18.50;99.90
21616;DHT22;10970;48.714;9.584;2023-06-22T03:06:43;18.50;99.90
21616;DHT22;10970;48.714;9.584;2023-06-22T03:09:09;18.40;99.90
21616;DHT22;10970;48.714;9.584;2023-06-22T03:11:34;18.40;99.90
21616;DHT22;10970;48.714;9.584;2023-06-22T03:14:01;18.40;99.90
21616;DHT22;10970;48.714;9.584;2023-06-22T03:16:27;18.40;99.90
21616;DHT22;10970;48.714;9.584;2023-06-22T03:18:53;18.40;99.90
21616;DHT22;10970;48.714;9.584;2023-06-22T03:21:19;18.40;99.90
21616;DHT22;10970;48.714;9.584;2023-06-22T03:23:45;18.40;99.90
21616;DHT22;10970;48.714;9.584;2023-06-22T03:26:10;18.50;99.90
21616;DHT22;10970;48.714;9.584;2023-06-22T03:28:37;18.50;99.90
21616;DHT22;10970;48.714;9.584;2023-06-22T03:31:03;18.60;99.90
21616;DHT22;10970;48.714;9.584;2023-06-22T03:33:29;18.70;99.90
21616;DHT22;10970;48.714;9.584;2023-06-22T03:35:55;18.70;99.90
21616;DHT22;10970;48.714;9.584;2023-06-22T03:38:20;18.80;99.90
21616;DHT22;10970;48.714;9.584;2023-06-22T03:40:46;18.70;99.90
21616;DHT22;10970;48.714;9.584;2023-06-22T03:43:12;18.70;99.90
21616;DHT22;10970;48.714;9.584;2023-06-22T03:45:37;18.70;99.90
21616;DHT22;10970;48.714;9.584;2023-06-22T03:48:03;18.70;99.90
21616;DHT22;10970;48.714;9.584;2023-06-22T03:50:29;18.70;99.90
21616;DHT22;10970;48.714;9.584;2023-06-22T03:52:55;18.70;99.90
21616;DHT22;10970;48.714;9.584;2023-06-22T03:55:21;18.70;99.90
21616;DHT22;10970;48.714;9.584;2023-06-22T03:57:46;18.90;99.90
21616;DHT22;10970;48.714;9.584;2023-06-22T04:00:13;18.80;99.90
21616;DHT22;10970;48.714;9.584;2023-06-22T04:02:38;18.80;99.90
21616;DHT22;10970;48.714;9.584;2023-06-22T04:05:04;18.90;99.90
21616;DHT22;10970;48.714;9.584;2023-06-22T04:07:30;18.90;99.90
21616;DHT22;10970;48.714;9.584;2023-06-22T04:09:56;18.90;99.90
21616;DHT22;10970;48.714;9.584;2023-06-22T04:12:22;19.00;99.90
21616;DHT22;10970;48.714;9.584;2023-06-22T04:14:47;19.00;99.90
21616;DHT22;10970;48.714;9.584;2023-06-22T04:17:13;19.00;99.90
21616;DHT22;10970;48.714;9.584;2023-06-22T04:19:40;19.10;99.90
21616;DHT22;10970;48.714;9.584;2023-06-22T04:22:05;19.10;99.90
21616;DHT22;10970;48.714;9.584;2023-06-22T04:24:33;19.20;99.90
21616;DHT22;10970;48.714;9.584;2023-06-22T04:26:58;19.20;99.90
21616;DHT22;10970;48.714;9.584;2023-06-22T04:29:28;19.20;99.90
21616;DHT22;10970;48.714;9.584;2023-06-22T04:31:56;19.30;99.90
21616;DHT22;10970;48.714;9.584;2023-06-22T04:34:24;19.30;99.90
21616;DHT22;10970;48.714;9.584;2023-06-22T04:36:52;19.40;99.90
21616;DHT22;10970;48.714;9.584;2023-06-22T04:39:18;19.40;99.90
21616;DHT22;10970;48.714;9.584;2023-06-22T04:41:44;19.40;99.90
21616;DHT22;10970;48.714;9.584;2023-06-22T04:44:15;19.50;99.90
21616;DHT22;10970;48.714;9.584;2023-06-22T04:46:58;19.50;99.90
21616;DHT22;10970;48.714;9.584;2023-06-22T04:49:29;19.60;99.90
21616;DHT22;10970;48.714;9.584;2023-06-22T04:51:59;19.60;99.90
21616;DHT22;10970;48.714;9.584;2023-06-22T04:54:25;19.70;99.90
21616;DHT22;10970;48.714;9.584;2023-06-22T04:57:02;19.70;99.90
21616;DHT22;10970;48.714;9.584;2023-06-22T04:59:30;19.80;99.90
21616;DHT22;10970;48.714;9.584;2023-06-22T05:02:00;19.90;99.90
21616;DHT22;10970;48.714;9.584;2023-06-22T05:04:27;19.90;99.90
21616;DHT22;10970;48.714;9.584;2023-06-22T05:06:54;20.10;99.90
21616;DHT22;10970;48.714;9.584;2023-06-22T05:09:20;20.20;99.90
21616;DHT22;10970;48.714;9.584;2023-06-22T05:11:46;20.30;99.90
21616;DHT22;10970;48.714;9.584;2023-06-22T05:14:12;20.60;99.90
21616;DHT22;10970;48.714;9.584;2023-06-22T05:16:38;20.80;99.90
21616;DHT22;10970;48.714;9.584;2023-06-22T05:19:04;21.00;99.90
21616;DHT22;10970;48.714;9.584;2023-06-22T05:21:30;21.20;99.90
21616;DHT22;10970;48.714;9.584;2023-06-22T05:23:56;21.50;99.90
21616;DHT22;10970;48.714;9.584;2023-06-22T05:26:31;21.70;99.90
21616;DHT22;10970;48.714;9.584;2023-06-22T05:28:57;22.00;99.90
21616;DHT22;10970;48.714;9.584;2023-06-22T05:31:23;22.30;99.90
21616;DHT22;10970;48.714;9.584;2023-06-22T05:33:51;22.40;99.90
21616;DHT22;10970;48.714;9.584;2023-06-22T05:36:17;22.20;99.90
21616;DHT22;10970;48.714;9.584;2023-06-22T05:38:45;22.30;99.90
21616;DHT22;10970;48.714;9.584;2023-06-22T05:41:11;22.50;99.90
21616;DHT22;10970;48.714;9.584;2023-06-22T05:43:37;22.40;99.90
21616;DHT22;10970;48.714;9.584;2023-06-22T05:46:04;22.50;99.90
21616;DHT22;10970;48.714;9.584;2023-06-22T05:48:30;22.60;99.90
21616;DHT22;10970;48.714;9.584;2023-06-22T05:50:55;22.60;99.90
21616;DHT22;10970;48.714;9.584;2023-06-22T05:53:21;22.70;99.90
21616;DHT22;10970;48.714;9.584;2023-06-22T05:55:47;22.80;99.90
21616;DHT22;10970;48.714;9.584;2023-06-22T05:58:13;22.80;99.90
21616;DHT22;10970;48.714;9.584;2023-06-22T06:00:40;22.80;99.90
21616;DHT22;10970;48.714;9.584;2023-06-22T06:03:07;22.80;99.90
21616;DHT22;10970;48.714;9.584;2023-06-22T06:05:34;22.80;99.90
21616;DHT22;10970;48.714;9.584;2023-06-22T06:08:01;23.00;99.90
21616;DHT22;10970;48.714;9.584;2023-06-22T06:10:27;23.20;99.90
21616;DHT22;10970;48.714;9.584;2023-06-22T06:12:55;23.30;99.90
21616;DHT22;10970;48.714;9.584;2023-06-22T06:15:21;23.40;99.90
21616;DHT22;10970;48.714;9.584;2023-06-22T06:17:48;23.40;99.90
21616;DHT22;10970;48.714;9.584;2023-06-22T06:20:14;23.40;99.90
21616;DHT22;10970;48.714;9.584;2023-06-22T06:22:40;23.50;99.90
21616;DHT22;10970;48.714;9.584;2023-06-22T06:25:06;23.70;99.90
21616;DHT22;10970;48.714;9.584;2023-06-22T06:27:31;23.90;99.90
21616;DHT22;10970;48.714;9.584;2023-06-22T06:29:57;24.50;99.90
21616;DHT22;10970;48.714;9.584;2023-06-22T06:32:23;24.60;99.90
21616;DHT22;10970;48.714;9.584;2023-06-22T06:34:49;24.80;99.90
21616;DHT22;10970;48.714;9.584;2023-06-22T06:37:15;24.90;99.90
21616;DHT22;10970;48.714;9.584;2023-06-22T06:39:41;25.10;99.90
21616;DHT22;10970;48.714;9.584;2023-06-22T06:42:06;25.30;99.90
21616;DHT22;10970;48.714;9.584;2023-06-22T06:44:32;25.40;99.90
21616;DHT22;10970;48.714;9.584;2023-06-22T06:46:58;25.20;99.90
21616;DHT22;10970;48.714;9.584;2023-06-22T06:49:23;25.10;99.90
21616;DHT22;10970;48.714;9.584;2023-06-22T06:51:49;25.10;99.90
21616;DHT22;10970;48.714;9.584;2023-06-22T06:54:16;25.30;99.90
21616;DHT22;10970;48.714;9.584;2023-06-22T06:56:46;25.40;99.90
21616;DHT22;10970;48.714;9.584;2023-06-22T06:59:14;25.70;99.90
21616;DHT22;10970;48.714;9.584;2023-06-22T07:01:41;25.60;99.90
21616;DHT22;10970;48.714;9.584;2023-06-22T07:04:07;25.80;99.90
21616;DHT22;10970;48.714;9.584;2023-06-22T07:06:33;25.90;99.90
21616;DHT22;10970;48.714;9.584;2023-06-22T07:08:59;26.00;99.90
21616;DHT22;10970;48.714;9.584;2023-06-22T07:11:25;26.10;99.90
21616;DHT22;10970;48.714;9.584;2023-06-22T07:13:50;26.40;99.90
21616;DHT22;10970;48.714;9.584;2023-06-22T07:16:16;26.60;99.90
21616;DHT22;10970;48.714;9.584;2023-06-22T07:18:42;26.70;99.90
21616;DHT22;10970;48.714;9.584;2023-06-22T07:21:08;26.60;99.90
21616;DHT22;10970;48.714;9.584;2023-06-22T07:23:34;26.70;99.90
21616;DHT22;10970;48.714;9.584;2023-06-22T07:25:59;26.80;99.90
21616;DHT22;10970;48.714;9.584;2023-06-22T07:28:28;26.90;99.90
21616;DHT22;10970;48.714;9.584;2023-06-22T07:30:57;27.20;99.90
21616;DHT22;10970;48.714;9.584;2023-06-22T07:33:22;27.30;99.90
21616;DHT22;10970;48.714;9.584;2023-06-22T07:35:48;27.70;99.90
21616;DHT22;10970;48.714;9.584;2023-06-22T07:38:14;27.90;99.90
21616;DHT22;10970;48.714;9.584;2023-06-22T07:40:41;27.90;99.90
21616;DHT22;10970;48.714;9.584;2023-06-22T07:43:07;27.90;99.90
21616;DHT22;10970;48.714;9.584;2023-06-22T07:45:32;28.00;99.90
21616;DHT22;10970;48.714;9.584;2023-06-22T07:48:00;28.10;99.90
21616;DHT22;10970;48.714;9.584;2023-06-22T07:50:26;28.00;99.90
21616;DHT22;10970;48.714;9.584;2023-06-22T07:52:52;28.10;99.90
21616;DHT22;10970;48.714;9.584;2023-06-22T07:55:18;28.40;99.90
21616;DHT22;10970;48.714;9.584;2023-06-22T07:57:44;28.70;99.90
21616;DHT22;10970;48.714;9.584;2023-06-22T08:00:10;29.10;99.90
21616;DHT22;10970;48.714;9.584;2023-06-22T08:02:41;29.20;99.90
21616;DHT22;10970;48.714;9.584;2023-06-22T08:05:10;29.20;99.90
21616;DHT22;10970;48.714;9.584;2023-06-22T08:07:37;29.40;99.90
21616;DHT22;10970;48.714;9.584;2023-06-22T08:10:09;29.50;99.90
21616;DHT22;10970;48.714;9.584;2023-06-22T08:12:35;29.50;99.90
21616;DHT22;10970;48.714;9.584;2023-06-22T08:15:01;29.60;99.90
21616;DHT22;10970;48.714;9.584;2023-06-22T08:17:26;29.80;99.90
21616;DHT22;10970;48.714;9.584;2023-06-22T08:19:52;30.00;99.90
21616;DHT22;10970;48.714;9.584;2023-06-22T08:22:18;30.20;99.90
21616;DHT22;10970;48.714;9.584;2023-06-22T08:24:44;30.50;99.90
21616;DHT22;10970;48.714;9.584;2023-06-22T08:27:10;30.70;99.90
21616;DHT22;10970;48.714;9.584;2023-06-22T08:29:40;30.80;99.90
21616;DHT22;10970;48.714;9.584;2023-06-22T08:32:09;30.90;99.90
21616;DHT22;10970;48.714;9.584;2023-06-22T08:34:35;31.30;99.90
21616;DHT22;10970;48.714;9.584;2023-06-22T08:37:01;31.50;99.90
21616;DHT22;10970;48.714;9.584;2023-06-22T08:39:26;31.50;99.90
21616;DHT22;10970;48.714;9.584;2023-06-22T08:41:53;31.60;99.90
21616;DHT22;10970;48.714;9.584;2023-06-22T08:44:19;31.40;99.90
21616;DHT22;10970;48.714;9.584;2023-06-22T08:46:45;31.60;99.90
21616;DHT22;10970;48.714;9.584;2023-06-22T08:49:10;31.70;99.90
21616;DHT22;10970;48.714;9.584;2023-06-22T08:51:36;31.90;99.90
21616;DHT22;10970;48.714;9.584;2023-06-22T08:54:02;32.00;99.90
21616;DHT22;10970;48.714;9.584;2023-06-22T08:56:28;32.40;99.90
21616;DHT22;10970;48.714;9.584;2023-06-22T08:58:53;32.70;99.90
21616;DHT22;10970;48.714;9.584;2023-06-22T09:01:20;32.80;99.90
21616;DHT22;10970;48.714;9.584;2023-06-22T09:03:46;33.00;99.90
21616;DHT22;10970;48.714;9.584;2023-06-22T09:06:20;33.30;99.90
21616;DHT22;10970;48.714;9.584;2023-06-22T09:08:46;33.90;99.90
21616;DHT22;10970;48.714;9.584;2023-06-22T09:11:12;33.80;99.90
21616;DHT22;10970;48.714;9.584;2023-06-22T09:13:38;33.50;99.90
21616;DHT22;10970;48.714;9.584;2023-06-22T09:16:04;34.00;99.90
21616;DHT22;10970;48.714;9.584;2023-06-22T09:18:29;34.00;99.90
21616;DHT22;10970;48.714;9.584;2023-06-22T09:20:55;33.70;99.90
21616;DHT22;10970;48.714;9.584;2023-06-22T09:23:21;33.80;99.90
21616;DHT22;10970;48.714;9.584;2023-06-22T09:25:47;33.60;99.90
21616;DHT22;10970;48.714;9.584;2023-06-22T09:28:14;33.70;99.90
21616;DHT22;10970;48.714;9.584;2023-06-22T09:30:39;33.80;99.90
21616;DHT22;10970;48.714;9.584;2023-06-22T09:33:05;33.70;99.90
21616;DHT22;10970;48.714;9.584;2023-06-22T09:35:31;33.80;99.90
21616;DHT22;10970;48.714;9.584;2023-06-22T09:37:56;33.70;99.90
21616;DHT22;10970;48.714;9.584;2023-06-22T09:40:22;33.70;99.90
21616;DHT22;10970;48.714;9.584;2023-06-22T09:42:48;33.90;99.90
21616;DHT22;10970;48.714;9.584;2023-06-22T09:45:13;33.90;99.90
21616;DHT22;10970;48.714;9.584;2023-06-22T09:47:39;33.70;99.90
21616;DHT22;10970;48.714;9.584;2023-06-22T09:50:05;33.70;99.90
21616;DHT22;10970;48.714;9.584;2023-06-22T09:52:31;33.60;99.90
21616;DHT22;10970;48.714;9.584;2023-06-22T09:54:57;33.70;99.90
21616;DHT22;10970;48.714;9.584;2023-06-22T09:57:23;33.80;99.90
21616;DHT22;10970;48.714;9.584;2023-06-22T09:59:48;33.20;99.90
21616;DHT22;10970;48.714;9.584;2023-06-22T10:02:14;33.10;99.90
21616;DHT22;10970;48.714;9.584;2023-06-22T10:04:40;33.40;99.90
21616;DHT22;10970;48.714;9.584;2023-06-22T10:07:05;33.30;99.90
21616;DHT22;10970;48.714;9.584;2023-06-22T10:09:31;33.20;99.90
21616;DHT22;10970;48.714;9.584;2023-06-22T10:11:57;33.30;99.90
21616;DHT22;10970;48.714;9.584;2023-06-22T10:14:23;33.40;99.90
21616;DHT22;10970;48.714;9.584;2023-06-22T10:16:51;33.10;99.90
21616;DHT22;10970;48.714;9.584;2023-06-22T10:19:17;33.20;99.90
21616;DHT22;10970;48.714;9.584;2023-06-22T10:21:43;33.20;99.90
21616;DHT22;10970;48.714;9.584;2023-06-22T10:24:09;33.20;99.90
21616;DHT22;10970;48.714;9.584;2023-06-22T10:26:35;33.30;99.90
21616;DHT22;10970;48.714;9.584;2023-06-22T10:29:02;33.10;99.90
21616;DHT22;10970;48.714;9.584;2023-06-22T10:31:28;32.90;99.90
21616;DHT22;10970;48.714;9.584;2023-06-22T10:33:54;32.50;99.90
21616;DHT22;10970;48.714;9.584;2023-06-22T10:36:21;32.30;99.90
21616;DHT22;10970;48.714;9.584;2023-06-22T10:38:47;32.30;99.90
21616;DHT22;10970;48.714;9.584;2023-06-22T10:41:13;32.50;99.90
21616;DHT22;10970;48.714;9.584;2023-06-22T10:43:39;32.70;99.90
21616;DHT22;10970;48.714;9.584;2023-06-22T10:46:06;32.80;99.90
21616;DHT22;10970;48.714;9.584;2023-06-22T10:48:31;32.90;99.90
21616;DHT22;10970;48.714;9.584;2023-06-22T10:50:57;32.90;99.90
21616;DHT22;10970;48.714;9.584;2023-06-22T10:53:23;32.90;99.90
21616;DHT22;10970;48.714;9.584;2023-06-22T10:55:48;33.00;99.90
21616;DHT22;10970;48.714;9.584;2023-06-22T10:58:14;32.90;99.90
21616;DHT22;10970;48.714;9.584;2023-06-22T11:00:40;33.00;99.90
21616;DHT22;10970;48.714;9.584;2023-06-22T11:03:06;32.80;99.90
21616;DHT22;10970;48.714;9.584;2023-06-22T11:05:31;33.00;99.90
21616;DHT22;10970;48.714;9.584;2023-06-22T11:07:57;32.90;99.90
21616;DHT22;10970;48.714;9.584;2023-06-22T11:10:23;32.80;99.90
21616;DHT22;10970;48.714;9.584;2023-06-22T11:12:48;32.70;99.90
21616;DHT22;10970;48.714;9.584;2023-06-22T11:15:14;33.00;99.90
21616;DHT22;10970;48.714;9.584;2023-06-22T11:17:40;32.90;99.90
21616;DHT22;10970;48.714;9.584;2023-06-22T11:20:06;32.90;99.90
21616;DHT22;10970;48.714;9.584;2023-06-22T11:22:39;33.00;99.90
21616;DHT22;10970;48.714;9.584;2023-06-22T11:25:06;32.80;99.90
21616;DHT22;10970;48.714;9.584;2023-06-22T11:27:32;33.10;99.90
21616;DHT22;10970;48.714;9.584;2023-06-22T11:29:58;33.40;99.90
21616;DHT22;10970;48.714;9.584;2023-06-22T11:32:24;33.50;99.90
21616;DHT22;10970;48.714;9.584;2023-06-22T11:34:50;33.80;99.90
21616;DHT22;10970;48.714;9.584;2023-06-22T11:37:15;34.00;99.90
21616;DHT22;10970;48.714;9.584;2023-06-22T11:39:44;34.00;99.90
21616;DHT22;10970;48.714;9.584;2023-06-22T11:42:11;33.90;99.90
21616;DHT22;10970;48.714;9.584;2023-06-22T11:44:36;33.80;99.90
21616;DHT22;10970;48.714;9.584;2023-06-22T11:47:02;33.70;99.90
21616;DHT22;10970;48.714;9.584;2023-06-22T11:49:31;33.50;99.90
21616;DHT22;10970;48.714;9.584;2023-06-22T11:51:57;33.70;99.90
21616;DHT22;10970;48.714;9.584;2023-06-22T11:54:22;33.30;99.90
21616;DHT22;10970;48.714;9.584;2023-06-22T11:56:48;33.30;99.90
21616;DHT22;10970;48.714;9.584;2023-06-22T11:59:14;33.20;99.90
21616;DHT22;10970;48.714;9.584;2023-06-22T12:01:39;33.20;99.90
21616;DHT22;10970;48.714;9.584;2023-06-22T12:04:05;33.00;99.90
21616;DHT22;10970;48.714;9.584;2023-06-22T12:06:37;32.90;99.90
21616;DHT22;10970;48.714;9.584;2023-06-22T12:09:03;32.80;99.90
21616;DHT22;10970;48.714;9.584;2023-06-22T12:11:30;32.50;99.90
21616;DHT22;10970;48.714;9.584;2023-06-22T12:13:56;32.50;99.90
21616;DHT22;10970;48.714;9.584;2023-06-22T12:16:21;32.40;99.90
21616;DHT22;10970;48.714;9.584;2023-06-22T12:18:48;32.50;99.90
21616;DHT22;10970;48.714;9.584;2023-06-22T12:21:13;32.90;99.90
21616;DHT22;10970;48.714;9.584;2023-06-22T12:23:39;33.00;99.90
21616;DHT22;10970;48.714;9.584;2023-06-22T12:26:05;33.10;99.90
21616;DHT22;10970;48.714;9.584;2023-06-22T12:28:30;33.40;99.90
21616;DHT22;10970;48.714;9.584;2023-06-22T12:30:56;33.60;99.90
21616;DHT22;10970;48.714;9.584;2023-06-22T12:33:22;33.80;99.90
21616;DHT22;10970;48.714;9.584;2023-06-22T12:35:47;33.50;99.90
21616;DHT22;10970;48.714;9.584;2023-06-22T12:38:14;33.50;99.90
21616;DHT22;10970;48.714;9.584;2023-06-22T12:40:40;33.30;99.90
21616;DHT22;10970;48.714;9.584;2023-06-22T12:43:05;33.30;99.90
21616;DHT22;10970;48.714;9.584;2023-06-22T12:45:33;33.20;99.90
21616;DHT22;10970;48.714;9.584;2023-06-22T12:48:00;32.80;99.90
21616;DHT22;10970;48.714;9.584;2023-06-22T12:50:26;32.70;99.90
21616;DHT22;10970;48.714;9.584;2023-06-22T12:52:51;32.50;99.90
21616;DHT22;10970;48.714;9.584;2023-06-22T12:55:17;32.30;99.90
21616;DHT22;10970;48.714;9.584;2023-06-22T12:57:43;32.10;99.90
21616;DHT22;10970;48.714;9.584;2023-06-22T13:00:10;32.00;99.90
21616;DHT22;10970;48.714;9.584;2023-06-22T13:02:37;31.90;99.90
21616;DHT22;10970;48.714;9.584;2023-06-22T13:05:03;31.80;99.90
21616;DHT22;10970;48.714;9.584;2023-06-22T13:07:30;31.80;99.90
21616;DHT22;10970;48.714;9.584;2023-06-22T13:09:56;31.80;99.90
21616;DHT22;10970;48.714;9.584;2023-06-22T13:12:22;31.80;99.90
21616;DHT22;10970;48.714;9.584;2023-06-22T13:14:48;31.80;99.90
21616;DHT22;10970;48.714;9.584;2023-06-22T13:17:14;31.80;99.90
21616;DHT22;10970;48.714;9.584;2023-06-22T13:19:40;31.90;99.90
21616;DHT22;10970;48.714;9.584;2023-06-22T13:24:54;32.30;99.90
21616;DHT22;10970;48.714;9.584;2023-06-22T13:27:20;32.50;99.90
21616;DHT22;10970;48.714;9.584;2023-06-22T13:29:46;32.60;99.90
21616;DHT22;10970;48.714;9.584;2023-06-22T13:32:11;32.60;99.90
21616;DHT22;10970;48.714;9.584;2023-06-22T13:34:37;32.50;99.90
21616;DHT22;10970;48.714;9.584;2023-06-22T13:37:03;32.70;99.90
21616;DHT22;10970;48.714;9.584;2023-06-22T13:39:28;32.80;99.90
21616;DHT22;10970;48.714;9.584;2023-06-22T13:41:54;33.00;99.90
21616;DHT22;10970;48.714;9.584;2023-06-22T13:44:20;33.10;99.90
21616;DHT22;10970;48.714;9.584;2023-06-22T13:46:47;33.30;99.90
21616;DHT22;10970;48.714;9.584;2023-06-22T13:49:13;33.40;99.90
21616;DHT22;10970;48.714;9.584;2023-06-22T13:51:39;33.40;99.90
21616;DHT22;10970;48.714;9.584;2023-06-22T13:54:04;33.40;99.90
21616;DHT22;10970;48.714;9.584;2023-06-22T13:56:30;33.40;99.90
21616;DHT22;10970;48.714;9.584;2023-06-22T13:58:55;33.40;99.90
21616;DHT22;10970;48.714;9.584;2023-06-22T14:01:21;33.50;99.90
21616;DHT22;10970;48.714;9.584;2023-06-22T14:03:48;33.40;99.90
21616;DHT22;10970;48.714;9.584;2023-06-22T14:06:13;33.30;99.90
21616;DHT22;10970;48.714;9.584;2023-06-22T14:08:39;33.30;99.90
21616;DHT22;10970;48.714;9.584;2023-06-22T14:11:05;33.20;99.90
21616;DHT22;10970;48.714;9.584;2023-06-22T14:13:30;33.10;99.90
21616;DHT22;10970;48.714;9.584;2023-06-22T14:15:56;33.10;99.90
21616;DHT22;10970;48.714;9.584;2023-06-22T14:18:22;33.00;99.90
21616;DHT22;10970;48.714;9.584;2023-06-22T14:20:48;33.00;99.90
21616;DHT22;10970;48.714;9.584;2023-06-22T14:23:14;33.10;99.90
21616;DHT22;10970;48.714;9.584;2023-06-22T14:25:40;33.30;99.90
21616;DHT22;10970;48.714;9.584;2023-06-22T14:28:06;33.40;99.90
21616;DHT22;10970;48.714;9.584;2023-06-22T14:30:32;33.50;99.90
21616;DHT22;10970;48.714;9.584;2023-06-22T14:32:57;33.60;99.90
21616;DHT22;10970;48.714;9.584;2023-06-22T14:35:23;33.40;99.90
21616;DHT22;10970;48.714;9.584;2023-06-22T14:37:50;33.30;99.90
21616;DHT22;10970;48.714;9.584;2023-06-22T14:40:15;33.10;99.90
21616;DHT22;10970;48.714;9.584;2023-06-22T14:42:41;33.00;99.90
21616;DHT22;10970;48.714;9.584;2023-06-22T14:45:07;32.90;99.90
21616;DHT22;10970;48.714;9.584;2023-06-22T14:47:33;33.00;99.90
21616;DHT22;10970;48.714;9.584;2023-06-22T14:49:59;33.30;99.90
21616;DHT22;10970;48.714;9.584;2023-06-22T14:52:26;33.50;99.90
21616;DHT22;10970;48.714;9.584;2023-06-22T14:54:52;33.50;99.90
21616;DHT22;10970;48.714;9.584;2023-06-22T14:57:18;33.50;99.90
21616;DHT22;10970;48.714;9.584;2023-06-22T14:59:46;33.40;99.90
21616;DHT22;10970;48.714;9.584;2023-06-22T15:02:12;33.30;99.90
21616;DHT22;10970;48.714;9.584;2023-06-22T15:04:38;33.20;99.90
21616;DHT22;10970;48.714;9.584;2023-06-22T15:07:04;33.10;99.90
21616;DHT22;10970;48.714;9.584;2023-06-22T15:09:30;33.10;99.90
21616;DHT22;10970;48.714;9.584;2023-06-22T15:11:55;33.10;99.90
21616;DHT22;10970;48.714;9.584;2023-06-22T15:14:21;32.90;99.90
21616;DHT22;10970;48.714;9.584;2023-06-22T15:16:47;32.80;99.90
21616;DHT22;10970;48.714;9.584;2023-06-22T15:19:12;32.70;99.90
21616;DHT22;10970;48.714;9.584;2023-06-22T15:21:38;32.60;99.90
21616;DHT22;10970;48.714;9.584;2023-06-22T15:24:04;32.70;99.90
21616;DHT22;10970;48.714;9.584;2023-06-22T15:26:30;32.90;99.90
21616;DHT22;10970;48.714;9.584;2023-06-22T15:28:55;33.00;99.90
21616;DHT22;10970;48.714;9.584;2023-06-22T15:31:21;33.30;99.90
21616;DHT22;10970;48.714;9.584;2023-06-22T15:33:47;33.50;99.90
21616;DHT22;10970;48.714;9.584;2023-06-22T15:36:12;33.60;99.90